sensor_id;sensor_type;location;lat;lon;timestamp;temperature;humidity
23395;DHT22;11870;53.084;18.206;2023-02-15T00:01:25;0.20;99.90
23395;DHT22;11870;53.084;18.206;2023-02-15T00:03:51;-0.30;99.90
23395;DHT22;11870;53.084;18.206;2023-02-15T00:06:17;-0.40;99.90
23395;DHT22;11870;53.084;18.206;2023-02-15T00:08:43;-0.40;99.90
23395;DHT22;11870;53.084;18.206;2023-02-15T00:11:12;-0.50;99.90
23395;DHT22;11870;53.084;18.206;2023-02-15T00:13:39;-0.50;99.90
23395;DHT22;11870;53.084;18.206;2023-02-15T00:16:11;-0.50;99.90
23395;DHT22;11870;53.084;18.206;2023-02-15T00:18:40;-0.50;99.90
23395;DHT22;11870;53.084;18.206;2023-02-15T00:21:09;-0.50;99.90
23395;DHT22;11870;53.084;18.206;2023-02-15T00:23:36;-0.50;99.90
23395;DHT22;11870;53.084;18.206;2023-02-15T00:26:07;-0.50;99.90
23395;DHT22;11870;53.084;18.206;2023-02-15T00:28:33;-0.40;99.90
23395;DHT22;11870;53.084;18.206;2023-02-15T00:31:17;-0.40;99.90
23395;DHT22;11870;53.084;18.206;2023-02-15T00:33:43;-0.40;99.90
23395;DHT22;11870;53.084;18.206;2023-02-15T00:36:10;-0.40;99.90
23395;DHT22;11870;53.084;18.206;2023-02-15T00:38:36;-0.30;99.90
23395;DHT22;11870;53.084;18.206;2023-02-15T00:41:05;-0.20;99.90
23395;DHT22;11870;53.084;18.206;2023-02-15T00:43:32;-0.30;99.90
23395;DHT22;11870;53.084;18.206;2023-02-15T00:45:59;-0.30;99.90
23395;DHT22;11870;53.084;18.206;2023-02-15T00:48:25;-0.40;99.90
23395;DHT22;11870;53.084;18.206;2023-02-15T00:50:56;-0.40;99.90
23395;DHT22;11870;53.084;18.206;2023-02-15T00:53:23;-0.40;99.90
23395;DHT22;11870;53.084;18.206;2023-02-15T00:55:49;-0.40;99.90
23395;DHT22;11870;53.084;18.206;2023-02-15T00:58:15;-0.30;99.90
23395;DHT22;11870;53.084;18.206;2023-02-15T01:00:44;-0.20;99.90
23395;DHT22;11870;53.084;18.206;2023-02-15T01:03:11;-0.20;99.90
23395;DHT22;11870;53.084;18.206;2023-02-15T01:05:38;-0.20;99.90
23395;DHT22;11870;53.084;18.206;2023-02-15T01:08:04;-0.30;99.90
23395;DHT22;11870;53.084;18.206;2023-02-15T01:10:31;-0.20;99.90
23395;DHT22;11870;53.084;18.206;2023-02-15T01:12:58;-0.30;99.90
23395;DHT22;11870;53.084;18.206;2023-02-15T01:15:24;-0.30;99.90
23395;DHT22;11870;53.084;18.206;2023-02-15T01:17:51;-0.30;99.90
23395;DHT22;11870;53.084;18.206;2023-02-15T01:20:28;-0.30;99.90
23395;DHT22;11870;53.084;18.206;2023-02-15T01:22:54;-0.40;99.90
23395;DHT22;11870;53.084;18.206;2023-02-15T01:25:22;-0.40;99.90
23395;DHT22;11870;53.084;18.206;2023-02-15T01:27:49;-0.40;99.90
23395;DHT22;11870;53.084;18.206;2023-02-15T01:30:16;-0.30;99.90
23395;DHT22;11870;53.084;18.206;2023-02-15T01:32:43;-0.30;99.90
23395;DHT22;11870;53.084;18.206;2023-02-15T01:35:09;-0.20;99.90
23395;DHT22;11870;53.084;18.206;2023-02-15T01:37:36;-0.30;99.90
23395;DHT22;11870;53.084;18.206;2023-02-15T01:40:04;-0.30;99.90
23395;DHT22;11870;53.084;18.206;2023-02-15T01:42:32;-0.20;99.90
23395;DHT22;11870;53.084;18.206;2023-02-15T01:47:41;-0.10;99.90
23395;DHT22;11870;53.084;18.206;2023-02-15T01:50:16;-0.10;99.90
23395;DHT22;11870;53.084;18.206;2023-02-15T01:52:51;-0.10;99.90
23395;DHT22;11870;53.084;18.206;2023-02-15T01:55:19;0.00;99.90
23395;DHT22;11870;53.084;18.206;2023-02-15T01:57:46;0.10;99.90
23395;DHT22;11870;53.084;18.206;2023-02-15T02:00:13;0.00;99.90
23395;DHT22;11870;53.084;18.206;2023-02-15T02:02:42;0.10;99.90
23395;DHT22;11870;53.084;18.206;2023-02-15T02:05:09;0.10;99.90
23395;DHT22;11870;53.084;18.206;2023-02-15T02:07:38;0.10;99.90
23395;DHT22;11870;53.084;18.206;2023-02-15T02:10:06;0.10;99.90
23395;DHT22;11870;53.084;18.206;2023-02-15T02:12:33;0.10;99.90
23395;DHT22;11870;53.084;18.206;2023-02-15T02:15:00;0.10;99.90
23395;DHT22;11870;53.084;18.206;2023-02-15T02:17:45;0.20;99.90
23395;DHT22;11870;53.084;18.206;2023-02-15T02:23:30;0.20;99.90
23395;DHT22;11870;53.084;18.206;2023-02-15T02:29:22;0.20;99.90
23395;DHT22;11870;53.084;18.206;2023-02-15T02:34:43;0.20;99.90
23395;DHT22;11870;53.084;18.206;2023-02-15T02:40:30;0.10;99.90
23395;DHT22;11870;53.084;18.206;2023-02-15T02:45:46;0.30;99.90
23395;DHT22;11870;53.084;18.206;2023-02-15T02:48:20;0.30;99.90
23395;DHT22;11870;53.084;18.206;2023-02-15T02:50:48;0.40;99.90
23395;DHT22;11870;53.084;18.206;2023-02-15T02:53:13;0.30;99.90
23395;DHT22;11870;53.084;18.206;2023-02-15T03:01:03;0.20;99.90
23395;DHT22;11870;53.084;18.206;2023-02-15T03:03:39;0.30;99.90
23395;DHT22;11870;53.084;18.206;2023-02-15T03:06:11;0.30;99.90
23395;DHT22;11870;53.084;18.206;2023-02-15T03:08:41;0.30;99.90
23395;DHT22;11870;53.084;18.206;2023-02-15T03:11:09;0.30;99.90
23395;DHT22;11870;53.084;18.206;2023-02-15T03:13:36;0.40;99.90
23395;DHT22;11870;53.084;18.206;2023-02-15T03:16:05;0.50;99.90
23395;DHT22;11870;53.084;18.206;2023-02-15T03:18:54;0.50;99.90
23395;DHT22;11870;53.084;18.206;2023-02-15T03:24:08;0.40;99.90
23395;DHT22;11870;53.084;18.206;2023-02-15T03:26:36;0.40;99.90
23395;DHT22;11870;53.084;18.206;2023-02-15T03:29:05;0.30;99.90
23395;DHT22;11870;53.084;18.206;2023-02-15T03:31:35;0.40;99.90
23395;DHT22;11870;53.084;18.206;2023-02-15T03:34:06;0.40;99.90
23395;DHT22;11870;53.084;18.206;2023-02-15T03:36:42;0.40;99.90
23395;DHT22;11870;53.084;18.206;2023-02-15T03:42:01;0.30;99.90
23395;DHT22;11870;53.084;18.206;2023-02-15T03:44:31;0.40;99.90
23395;DHT22;11870;53.084;18.206;2023-02-15T03:47:18;0.50;99.90
23395;DHT22;11870;53.084;18.206;2023-02-15T03:50:12;0.40;99.90
23395;DHT22;11870;53.084;18.206;2023-02-15T03:52:59;0.50;99.90
23395;DHT22;11870;53.084;18.206;2023-02-15T03:55:28;0.50;99.90
23395;DHT22;11870;53.084;18.206;2023-02-15T03:57:55;0.50;99.90
23395;DHT22;11870;53.084;18.206;2023-02-15T04:00:45;0.50;99.90
23395;DHT22;11870;53.084;18.206;2023-02-15T04:03:40;0.60;99.90
23395;DHT22;11870;53.084;18.206;2023-02-15T04:06:06;0.60;99.90
23395;DHT22;11870;53.084;18.206;2023-02-15T04:08:33;0.60;99.90
23395;DHT22;11870;53.084;18.206;2023-02-15T04:11:17;0.60;99.90
23395;DHT22;11870;53.084;18.206;2023-02-15T04:13:43;0.60;99.90
23395;DHT22;11870;53.084;18.206;2023-02-15T04:16:09;0.60;99.90
23395;DHT22;11870;53.084;18.206;2023-02-15T04:18:41;0.50;99.90
23395;DHT22;11870;53.084;18.206;2023-02-15T04:21:30;0.60;99.90
23395;DHT22;11870;53.084;18.206;2023-02-15T04:24:15;0.60;99.90
23395;DHT22;11870;53.084;18.206;2023-02-15T04:27:00;0.70;99.90
23395;DHT22;11870;53.084;18.206;2023-02-15T04:29:27;0.70;99.90
23395;DHT22;11870;53.084;18.206;2023-02-15T04:31:54;0.60;99.90
23395;DHT22;11870;53.084;18.206;2023-02-15T04:34:20;0.70;99.90
23395;DHT22;11870;53.084;18.206;2023-02-15T04:36:46;0.70;99.90
23395;DHT22;11870;53.084;18.206;2023-02-15T04:39:13;0.70;99.90
23395;DHT22;11870;53.084;18.206;2023-02-15T04:41:40;0.70;99.90
23395;DHT22;11870;53.084;18.206;2023-02-15T04:44:06;0.70;99.90
23395;DHT22;11870;53.084;18.206;2023-02-15T04:46:32;0.70;99.90
23395;DHT22;11870;53.084;18.206;2023-02-15T04:48:58;0.80;99.90
23395;DHT22;11870;53.084;18.206;2023-02-15T04:51:24;0.80;99.90
23395;DHT22;11870;53.084;18.206;2023-02-15T04:53:50;0.80;99.90
23395;DHT22;11870;53.084;18.206;2023-02-15T04:56:18;0.80;99.90
23395;DHT22;11870;53.084;18.206;2023-02-15T04:58:44;0.80;99.90
23395;DHT22;11870;53.084;18.206;2023-02-15T05:01:10;0.80;99.90
23395;DHT22;11870;53.084;18.206;2023-02-15T05:03:37;0.80;99.90
23395;DHT22;11870;53.084;18.206;2023-02-15T05:06:03;0.80;99.90
23395;DHT22;11870;53.084;18.206;2023-02-15T05:08:30;0.80;99.90
23395;DHT22;11870;53.084;18.206;2023-02-15T05:10:56;0.70;99.90
23395;DHT22;11870;53.084;18.206;2023-02-15T05:13:23;0.70;99.90
23395;DHT22;11870;53.084;18.206;2023-02-15T05:15:50;0.90;99.90
23395;DHT22;11870;53.084;18.206;2023-02-15T05:18:17;0.90;99.90
23395;DHT22;11870;53.084;18.206;2023-02-15T05:20:44;0.90;99.90
23395;DHT22;11870;53.084;18.206;2023-02-15T05:23:10;0.90;99.90
23395;DHT22;11870;53.084;18.206;2023-02-15T05:25:36;0.90;99.90
23395;DHT22;11870;53.084;18.206;2023-02-15T05:28:23;0.90;99.90
23395;DHT22;11870;53.084;18.206;2023-02-15T05:30:51;1.00;99.90
23395;DHT22;11870;53.084;18.206;2023-02-15T05:33:22;1.00;99.90
23395;DHT22;11870;53.084;18.206;2023-02-15T05:35:48;1.00;99.90
23395;DHT22;11870;53.084;18.206;2023-02-15T05:38:14;1.00;99.90
23395;DHT22;11870;53.084;18.206;2023-02-15T05:40:40;1.00;99.90
23395;DHT22;11870;53.084;18.206;2023-02-15T05:43:06;1.00;99.90
23395;DHT22;11870;53.084;18.206;2023-02-15T05:45:32;1.00;99.90
23395;DHT22;11870;53.084;18.206;2023-02-15T05:47:58;1.00;99.90
23395;DHT22;11870;53.084;18.206;2023-02-15T05:50:24;1.00;99.90
23395;DHT22;11870;53.084;18.206;2023-02-15T05:52:50;1.10;99.90
23395;DHT22;11870;53.084;18.206;2023-02-15T05:55:17;1.10;99.90
23395;DHT22;11870;53.084;18.206;2023-02-15T05:57:43;1.00;99.90
23395;DHT22;11870;53.084;18.206;2023-02-15T06:00:12;1.00;99.90
23395;DHT22;11870;53.084;18.206;2023-02-15T06:02:39;1.00;99.90
23395;DHT22;11870;53.084;18.206;2023-02-15T06:05:06;1.00;99.90
23395;DHT22;11870;53.084;18.206;2023-02-15T06:07:32;1.10;99.90
23395;DHT22;11870;53.084;18.206;2023-02-15T06:09:58;1.10;99.90
23395;DHT22;11870;53.084;18.206;2023-02-15T06:12:24;1.10;99.90
23395;DHT22;11870;53.084;18.206;2023-02-15T06:14:50;1.10;99.90
23395;DHT22;11870;53.084;18.206;2023-02-15T06:17:16;1.10;99.90
23395;DHT22;11870;53.084;18.206;2023-02-15T06:19:43;1.10;99.90
23395;DHT22;11870;53.084;18.206;2023-02-15T06:22:09;1.00;99.90
23395;DHT22;11870;53.084;18.206;2023-02-15T06:24:35;1.00;99.90
23395;DHT22;11870;53.084;18.206;2023-02-15T06:27:01;1.10;99.90
23395;DHT22;11870;53.084;18.206;2023-02-15T06:29:27;1.10;99.90
23395;DHT22;11870;53.084;18.206;2023-02-15T06:31:52;1.10;99.90
23395;DHT22;11870;53.084;18.206;2023-02-15T06:34:18;1.10;99.90
23395;DHT22;11870;53.084;18.206;2023-02-15T06:36:45;1.10;99.90
23395;DHT22;11870;53.084;18.206;2023-02-15T06:39:10;1.10;99.90
23395;DHT22;11870;53.084;18.206;2023-02-15T06:41:36;1.10;99.90
23395;DHT22;11870;53.084;18.206;2023-02-15T06:44:02;1.00;99.90
23395;DHT22;11870;53.084;18.206;2023-02-15T06:46:28;1.00;99.90
23395;DHT22;11870;53.084;18.206;2023-02-15T06:48:54;1.10;99.90
23395;DHT22;11870;53.084;18.206;2023-02-15T06:51:20;1.20;99.90
23395;DHT22;11870;53.084;18.206;2023-02-15T06:53:46;1.20;99.90
23395;DHT22;11870;53.084;18.206;2023-02-15T06:56:12;1.30;99.90
23395;DHT22;11870;53.084;18.206;2023-02-15T06:58:39;1.30;99.90
23395;DHT22;11870;53.084;18.206;2023-02-15T07:01:06;1.40;99.90
23395;DHT22;11870;53.084;18.206;2023-02-15T07:03:33;1.50;99.90
23395;DHT22;11870;53.084;18.206;2023-02-15T07:06:00;1.60;99.90
23395;DHT22;11870;53.084;18.206;2023-02-15T07:08:27;1.60;99.90
23395;DHT22;11870;53.084;18.206;2023-02-15T07:10:54;1.70;99.90
23395;DHT22;11870;53.084;18.206;2023-02-15T07:13:21;1.70;99.90
23395;DHT22;11870;53.084;18.206;2023-02-15T07:15:49;1.70;99.90
23395;DHT22;11870;53.084;18.206;2023-02-15T07:18:15;1.70;99.90
23395;DHT22;11870;53.084;18.206;2023-02-15T07:20:41;1.70;99.90
23395;DHT22;11870;53.084;18.206;2023-02-15T07:23:07;1.80;99.90
23395;DHT22;11870;53.084;18.206;2023-02-15T07:25:34;1.80;99.90
23395;DHT22;11870;53.084;18.206;2023-02-15T07:28:02;1.90;99.90
23395;DHT22;11870;53.084;18.206;2023-02-15T07:30:28;1.90;99.90
23395;DHT22;11870;53.084;18.206;2023-02-15T07:32:56;2.10;99.90
23395;DHT22;11870;53.084;18.206;2023-02-15T07:35:50;2.00;99.90
23395;DHT22;11870;53.084;18.206;2023-02-15T07:38:17;2.00;99.90
23395;DHT22;11870;53.084;18.206;2023-02-15T07:40:44;2.20;99.90
23395;DHT22;11870;53.084;18.206;2023-02-15T07:43:10;2.40;99.90
23395;DHT22;11870;53.084;18.206;2023-02-15T07:45:37;2.40;99.90
23395;DHT22;11870;53.084;18.206;2023-02-15T07:48:04;2.40;99.90
23395;DHT22;11870;53.084;18.206;2023-02-15T07:50:31;2.40;99.90
23395;DHT22;11870;53.084;18.206;2023-02-15T07:52:57;2.50;99.90
23395;DHT22;11870;53.084;18.206;2023-02-15T07:55:23;2.60;99.90
23395;DHT22;11870;53.084;18.206;2023-02-15T07:57:51;2.90;99.90
23395;DHT22;11870;53.084;18.206;2023-02-15T08:00:18;2.90;99.90
23395;DHT22;11870;53.084;18.206;2023-02-15T08:02:54;3.00;99.90
23395;DHT22;11870;53.084;18.206;2023-02-15T08:05:44;3.20;99.90
23395;DHT22;11870;53.084;18.206;2023-02-15T08:08:11;3.30;99.90
23395;DHT22;11870;53.084;18.206;2023-02-15T08:10:59;3.30;99.90
23395;DHT22;11870;53.084;18.206;2023-02-15T08:13:48;3.50;99.90
23395;DHT22;11870;53.084;18.206;2023-02-15T08:16:40;3.60;99.90
23395;DHT22;11870;53.084;18.206;2023-02-15T08:19:08;3.70;99.90
23395;DHT22;11870;53.084;18.206;2023-02-15T08:21:38;3.90;99.90
23395;DHT22;11870;53.084;18.206;2023-02-15T08:24:04;3.90;99.90
23395;DHT22;11870;53.084;18.206;2023-02-15T08:26:31;4.00;99.90
23395;DHT22;11870;53.084;18.206;2023-02-15T08:28:58;4.10;99.90
23395;DHT22;11870;53.084;18.206;2023-02-15T08:31:25;5.00;99.90
23395;DHT22;11870;53.084;18.206;2023-02-15T08:33:52;4.30;99.90
23395;DHT22;11870;53.084;18.206;2023-02-15T08:36:21;4.40;99.90
23395;DHT22;11870;53.084;18.206;2023-02-15T08:38:48;4.50;99.90
23395;DHT22;11870;53.084;18.206;2023-02-15T08:41:26;4.60;99.90
23395;DHT22;11870;53.084;18.206;2023-02-15T08:43:53;4.70;99.90
23395;DHT22;11870;53.084;18.206;2023-02-15T08:46:21;4.80;99.90
23395;DHT22;11870;53.084;18.206;2023-02-15T08:48:48;5.00;99.90
23395;DHT22;11870;53.084;18.206;2023-02-15T08:51:19;5.00;99.90
23395;DHT22;11870;53.084;18.206;2023-02-15T08:53:49;5.00;99.90
23395;DHT22;11870;53.084;18.206;2023-02-15T08:56:17;5.10;99.90
23395;DHT22;11870;53.084;18.206;2023-02-15T08:58:44;5.30;99.90
23395;DHT22;11870;53.084;18.206;2023-02-15T09:01:18;5.40;99.90
23395;DHT22;11870;53.084;18.206;2023-02-15T09:03:47;5.30;99.90
23395;DHT22;11870;53.084;18.206;2023-02-15T09:06:15;5.40;99.90
23395;DHT22;11870;53.084;18.206;2023-02-15T09:08:41;5.40;99.90
23395;DHT22;11870;53.084;18.206;2023-02-15T09:11:13;5.30;99.90
23395;DHT22;11870;53.084;18.206;2023-02-15T09:13:42;5.40;99.90
23395;DHT22;11870;53.084;18.206;2023-02-15T09:16:09;5.50;99.90
23395;DHT22;11870;53.084;18.206;2023-02-15T09:18:38;5.70;99.90
23395;DHT22;11870;53.084;18.206;2023-02-15T09:21:12;5.80;99.90
23395;DHT22;11870;53.084;18.206;2023-02-15T09:23:42;5.90;99.90
23395;DHT22;11870;53.084;18.206;2023-02-15T09:26:14;5.90;99.90
23395;DHT22;11870;53.084;18.206;2023-02-15T09:28:40;6.00;99.90
23395;DHT22;11870;53.084;18.206;2023-02-15T09:31:15;6.80;99.90
23395;DHT22;11870;53.084;18.206;2023-02-15T09:33:43;6.00;99.90
23395;DHT22;11870;53.084;18.206;2023-02-15T09:36:18;6.00;99.90
23395;DHT22;11870;53.084;18.206;2023-02-15T09:38:45;6.10;99.90
23395;DHT22;11870;53.084;18.206;2023-02-15T09:41:34;6.10;99.90
23395;DHT22;11870;53.084;18.206;2023-02-15T09:46:59;5.90;99.90
23395;DHT22;11870;53.084;18.206;2023-02-15T09:52:38;5.90;99.90
23395;DHT22;11870;53.084;18.206;2023-02-15T09:58:24;5.70;99.90
23395;DHT22;11870;53.084;18.206;2023-02-15T10:00:58;5.70;99.90
23395;DHT22;11870;53.084;18.206;2023-02-15T10:17:41;5.20;99.90
23395;DHT22;11870;53.084;18.206;2023-02-15T10:23:37;5.40;99.90
23395;DHT22;11870;53.084;18.206;2023-02-15T10:26:43;5.30;99.90
23395;DHT22;11870;53.084;18.206;2023-02-15T10:29:35;5.30;99.90
23395;DHT22;11870;53.084;18.206;2023-02-15T10:32:26;5.30;99.90
23395;DHT22;11870;53.084;18.206;2023-02-15T10:34:55;5.30;99.90
23395;DHT22;11870;53.084;18.206;2023-02-15T10:43:08;5.50;99.90
23395;DHT22;11870;53.084;18.206;2023-02-15T10:49:11;5.70;99.90
23395;DHT22;11870;53.084;18.206;2023-02-15T10:51:19;5.80;99.90
23395;DHT22;11870;53.084;18.206;2023-02-15T11:02:30;5.70;99.90
23395;DHT22;11870;53.084;18.206;2023-02-15T11:05:26;5.70;99.90
23395;DHT22;11870;53.084;18.206;2023-02-15T11:07:57;5.80;99.90
23395;DHT22;11870;53.084;18.206;2023-02-15T11:10:38;5.80;99.90
23395;DHT22;11870;53.084;18.206;2023-02-15T11:13:15;5.60;99.90
23395;DHT22;11870;53.084;18.206;2023-02-15T11:15:51;5.60;99.90
23395;DHT22;11870;53.084;18.206;2023-02-15T11:18:49;5.60;99.90
23395;DHT22;11870;53.084;18.206;2023-02-15T11:21:40;5.80;99.90
23395;DHT22;11870;53.084;18.206;2023-02-15T11:24:11;5.80;99.90
23395;DHT22;11870;53.084;18.206;2023-02-15T11:26:43;5.80;99.90
23395;DHT22;11870;53.084;18.206;2023-02-15T11:29:24;5.90;99.90
23395;DHT22;11870;53.084;18.206;2023-02-15T11:32:02;5.90;99.90
23395;DHT22;11870;53.084;18.206;2023-02-15T11:34:31;6.00;99.90
23395;DHT22;11870;53.084;18.206;2023-02-15T11:37:05;6.00;99.90
23395;DHT22;11870;53.084;18.206;2023-02-15T11:39:32;6.70;99.90
23395;DHT22;11870;53.084;18.206;2023-02-15T11:42:04;6.10;99.90
23395;DHT22;11870;53.084;18.206;2023-02-15T11:44:38;6.00;99.90
23395;DHT22;11870;53.084;18.206;2023-02-15T11:47:10;6.10;99.90
23395;DHT22;11870;53.084;18.206;2023-02-15T11:49:36;6.10;99.90
23395;DHT22;11870;53.084;18.206;2023-02-15T11:52:10;6.10;99.90
23395;DHT22;11870;53.084;18.206;2023-02-15T11:54:41;6.10;99.90
23395;DHT22;11870;53.084;18.206;2023-02-15T11:57:23;6.20;99.90
23395;DHT22;11870;53.084;18.206;2023-02-15T12:02:52;6.30;99.90
23395;DHT22;11870;53.084;18.206;2023-02-15T12:05:21;6.20;99.90
23395;DHT22;11870;53.084;18.206;2023-02-15T12:07:54;6.30;99.90
23395;DHT22;11870;53.084;18.206;2023-02-15T12:10:25;6.30;99.90
23395;DHT22;11870;53.084;18.206;2023-02-15T12:13:23;6.40;99.90
23395;DHT22;11870;53.084;18.206;2023-02-15T12:15:59;6.30;99.90
23395;DHT22;11870;53.084;18.206;2023-02-15T12:18:44;6.40;99.90
23395;DHT22;11870;53.084;18.206;2023-02-15T12:21:34;6.60;99.90
23395;DHT22;11870;53.084;18.206;2023-02-15T12:24:21;6.70;99.90
23395;DHT22;11870;53.084;18.206;2023-02-15T12:29:29;6.50;99.90
23395;DHT22;11870;53.084;18.206;2023-02-15T12:31:57;6.50;99.90
23395;DHT22;11870;53.084;18.206;2023-02-15T12:34:30;6.40;99.90
23395;DHT22;11870;53.084;18.206;2023-02-15T12:37:01;6.50;99.90
23395;DHT22;11870;53.084;18.206;2023-02-15T12:39:30;6.40;99.90
23395;DHT22;11870;53.084;18.206;2023-02-15T12:42:04;6.20;99.90
23395;DHT22;11870;53.084;18.206;2023-02-15T12:44:35;6.20;99.90
23395;DHT22;11870;53.084;18.206;2023-02-15T12:49:38;6.10;99.90
23395;DHT22;11870;53.084;18.206;2023-02-15T12:52:13;6.10;99.90
23395;DHT22;11870;53.084;18.206;2023-02-15T12:54:48;6.20;99.90
23395;DHT22;11870;53.084;18.206;2023-02-15T13:05:14;6.20;99.90
23395;DHT22;11870;53.084;18.206;2023-02-15T13:07:53;6.20;99.90
23395;DHT22;11870;53.084;18.206;2023-02-15T13:12:50;6.40;99.90
23395;DHT22;11870;53.084;18.206;2023-02-15T13:15:37;6.40;99.90
23395;DHT22;11870;53.084;18.206;2023-02-15T13:18:10;6.30;99.90
23395;DHT22;11870;53.084;18.206;2023-02-15T13:20:38;6.20;99.90
23395;DHT22;11870;53.084;18.206;2023-02-15T13:23:24;6.10;99.90
23395;DHT22;11870;53.084;18.206;2023-02-15T13:25:55;6.10;99.90
23395;DHT22;11870;53.084;18.206;2023-02-15T13:28:26;6.10;99.90
23395;DHT22;11870;53.084;18.206;2023-02-15T13:30:53;7.00;99.90
23395;DHT22;11870;53.084;18.206;2023-02-15T13:33:36;6.20;99.90
23395;DHT22;11870;53.084;18.206;2023-02-15T13:50:19;6.40;99.90
23395;DHT22;11870;53.084;18.206;2023-02-15T14:08:56;5.80;99.90
23395;DHT22;11870;53.084;18.206;2023-02-15T14:15:23;5.90;99.90
23395;DHT22;11870;53.084;18.206;2023-02-15T14:23:19;5.90;99.90
23395;DHT22;11870;53.084;18.206;2023-02-15T14:26:02;5.90;99.90
23395;DHT22;11870;53.084;18.206;2023-02-15T14:28:46;5.90;99.90
23395;DHT22;11870;53.084;18.206;2023-02-15T14:31:18;5.70;99.90
23395;DHT22;11870;53.084;18.206;2023-02-15T14:33:56;5.80;99.90
23395;DHT22;11870;53.084;18.206;2023-02-15T14:36:23;5.80;99.90
23395;DHT22;11870;53.084;18.206;2023-02-15T14:39:01;5.80;99.90
23395;DHT22;11870;53.084;18.206;2023-02-15T14:41:49;5.60;99.90
23395;DHT22;11870;53.084;18.206;2023-02-15T14:44:27;5.60;99.90
23395;DHT22;11870;53.084;18.206;2023-02-15T14:47:19;5.60;99.90
23395;DHT22;11870;53.084;18.206;2023-02-15T14:49:47;5.50;99.90
23395;DHT22;11870;53.084;18.206;2023-02-15T14:52:13;5.60;99.90
23395;DHT22;11870;53.084;18.206;2023-02-15T14:59:38;5.40;99.90
23395;DHT22;11870;53.084;18.206;2023-02-15T15:04:42;5.30;99.90
23395;DHT22;11870;53.084;18.206;2023-02-15T15:09:39;5.10;99.90
23395;DHT22;11870;53.084;18.206;2023-02-15T15:14:58;5.00;99.90
23395;DHT22;11870;53.084;18.206;2023-02-15T15:20:59;5.00;99.90
23395;DHT22;11870;53.084;18.206;2023-02-15T15:26:25;5.10;99.90
23395;DHT22;11870;53.084;18.206;2023-02-15T15:28:52;5.10;99.90
23395;DHT22;11870;53.084;18.206;2023-02-15T15:34:41;5.10;99.90
23395;DHT22;11870;53.084;18.206;2023-02-15T15:37:25;5.00;99.90
23395;DHT22;11870;53.084;18.206;2023-02-15T15:46:24;4.60;99.90
23395;DHT22;11870;53.084;18.206;2023-02-15T15:52:07;4.50;99.90
23395;DHT22;11870;53.084;18.206;2023-02-15T15:54:34;4.40;99.90
23395;DHT22;11870;53.084;18.206;2023-02-15T15:59:56;4.40;99.90
23395;DHT22;11870;53.084;18.206;2023-02-15T16:02:26;4.30;99.90
23395;DHT22;11870;53.084;18.206;2023-02-15T16:04:52;4.30;99.90
23395;DHT22;11870;53.084;18.206;2023-02-15T16:10:21;4.40;99.90
23395;DHT22;11870;53.084;18.206;2023-02-15T16:12:48;4.50;99.90
23395;DHT22;11870;53.084;18.206;2023-02-15T16:15:18;4.60;99.90
23395;DHT22;11870;53.084;18.206;2023-02-15T16:17:48;4.60;99.90
23395;DHT22;11870;53.084;18.206;2023-02-15T16:20:17;4.60;99.90
23395;DHT22;11870;53.084;18.206;2023-02-15T16:22:46;4.50;99.90
23395;DHT22;11870;53.084;18.206;2023-02-15T16:25:36;4.60;99.90
23395;DHT22;11870;53.084;18.206;2023-02-15T16:28:08;4.50;99.90
23395;DHT22;11870;53.084;18.206;2023-02-15T16:30:36;4.40;99.90
23395;DHT22;11870;53.084;18.206;2023-02-15T16:33:10;4.30;99.90
23395;DHT22;11870;53.084;18.206;2023-02-15T16:35:39;4.30;99.90
23395;DHT22;11870;53.084;18.206;2023-02-15T16:38:09;4.20;99.90
23395;DHT22;11870;53.084;18.206;2023-02-15T16:40:52;4.20;99.90
23395;DHT22;11870;53.084;18.206;2023-02-15T16:43:24;4.20;99.90
23395;DHT22;11870;53.084;18.206;2023-02-15T16:45:58;4.30;99.90
23395;DHT22;11870;53.084;18.206;2023-02-15T16:48:28;4.30;99.90
23395;DHT22;11870;53.084;18.206;2023-02-15T16:50:56;4.30;99.90
23395;DHT22;11870;53.084;18.206;2023-02-15T16:53:26;4.20;99.90
23395;DHT22;11870;53.084;18.206;2023-02-15T16:55:58;4.20;99.90
23395;DHT22;11870;53.084;18.206;2023-02-15T16:58:36;4.20;99.90
23395;DHT22;11870;53.084;18.206;2023-02-15T17:01:06;4.10;99.90
23395;DHT22;11870;53.084;18.206;2023-02-15T17:03:33;4.10;99.90
23395;DHT22;11870;53.084;18.206;2023-02-15T17:06:00;4.10;99.90
23395;DHT22;11870;53.084;18.206;2023-02-15T17:08:33;4.10;99.90
23395;DHT22;11870;53.084;18.206;2023-02-15T17:13:28;4.10;99.90
23395;DHT22;11870;53.084;18.206;2023-02-15T17:18:24;4.00;99.90
23395;DHT22;11870;53.084;18.206;2023-02-15T17:20:54;4.10;99.90
23395;DHT22;11870;53.084;18.206;2023-02-15T17:24:03;4.00;99.90
23395;DHT22;11870;53.084;18.206;2023-02-15T17:26:20;3.90;99.90
23395;DHT22;11870;53.084;18.206;2023-02-15T17:28:52;3.80;99.90
23395;DHT22;11870;53.084;18.206;2023-02-15T17:31:19;3.70;99.90
23395;DHT22;11870;53.084;18.206;2023-02-15T17:33:47;3.60;99.90
23395;DHT22;11870;53.084;18.206;2023-02-15T17:36:21;3.60;99.90
23395;DHT22;11870;53.084;18.206;2023-02-15T17:39:20;3.50;99.90
23395;DHT22;11870;53.084;18.206;2023-02-15T17:41:46;3.40;99.90
23395;DHT22;11870;53.084;18.206;2023-02-15T17:44:13;3.30;99.90
23395;DHT22;11870;53.084;18.206;2023-02-15T17:46:41;3.30;99.90
23395;DHT22;11870;53.084;18.206;2023-02-15T17:49:23;3.10;99.90
23395;DHT22;11870;53.084;18.206;2023-02-15T17:51:50;3.00;99.90
23395;DHT22;11870;53.084;18.206;2023-02-15T17:54:16;3.00;99.90
23395;DHT22;11870;53.084;18.206;2023-02-15T17:57:00;3.00;99.90
23395;DHT22;11870;53.084;18.206;2023-02-15T17:59:30;2.90;99.90
23395;DHT22;11870;53.084;18.206;2023-02-15T18:01:56;2.90;99.90
23395;DHT22;11870;53.084;18.206;2023-02-15T18:04:41;2.90;99.90
23395;DHT22;11870;53.084;18.206;2023-02-15T18:07:25;2.70;99.90
23395;DHT22;11870;53.084;18.206;2023-02-15T18:10:19;2.70;99.90
23395;DHT22;11870;53.084;18.206;2023-02-15T18:13:03;2.70;99.90
23395;DHT22;11870;53.084;18.206;2023-02-15T18:15:29;2.60;99.90
23395;DHT22;11870;53.084;18.206;2023-02-15T18:17:55;2.60;99.90
23395;DHT22;11870;53.084;18.206;2023-02-15T18:20:24;2.50;99.90
23395;DHT22;11870;53.084;18.206;2023-02-15T18:22:52;2.50;99.90
23395;DHT22;11870;53.084;18.206;2023-02-15T18:25:21;2.50;99.90
23395;DHT22;11870;53.084;18.206;2023-02-15T18:27:48;2.50;99.90
23395;DHT22;11870;53.084;18.206;2023-02-15T18:30:17;2.30;99.90
23395;DHT22;11870;53.084;18.206;2023-02-15T18:32:44;2.10;99.90
23395;DHT22;11870;53.084;18.206;2023-02-15T18:35:15;2.20;99.90
23395;DHT22;11870;53.084;18.206;2023-02-15T18:37:42;2.00;99.90
23395;DHT22;11870;53.084;18.206;2023-02-15T18:40:20;1.70;99.90
23395;DHT22;11870;53.084;18.206;2023-02-15T18:42:46;1.80;99.90
23395;DHT22;11870;53.084;18.206;2023-02-15T18:45:23;1.70;99.90
23395;DHT22;11870;53.084;18.206;2023-02-15T18:47:56;1.60;99.90
23395;DHT22;11870;53.084;18.206;2023-02-15T18:50:24;1.60;99.90